createdAt,value
2022-10-17T00:02:13.275Z,14.1
2022-10-17T00:05:00.721Z,14.1
2022-10-17T00:07:49.589Z,14.1
2022-10-17T00:10:37.154Z,14.2
2022-10-17T00:13:25.247Z,14.2
2022-10-17T00:16:12.986Z,14.2
2022-10-17T00:19:07.722Z,14.2
2022-10-17T00:21:55.105Z,14.2
2022-10-17T00:24:42.466Z,14.2
2022-10-17T00:27:30.083Z,14.2
2022-10-17T00:30:20.193Z,14.2
2022-10-17T00:33:07.533Z,14.2
2022-10-17T00:35:54.846Z,14.2
2022-10-17T00:38:52.160Z,14.2
2022-10-17T00:41:41.433Z,14.2
2022-10-17T00:44:28.773Z,14.2
2022-10-17T00:47:53.849Z,14.2
2022-10-17T00:50:46.007Z,14.2
2022-10-17T00:53:34.942Z,14.2
2022-10-17T00:56:24.388Z,14.2
2022-10-17T00:59:11.927Z,14.2
2022-10-17T01:02:02.928Z,14.2
2022-10-17T01:04:53.834Z,14.2
2022-10-17T01:07:44.131Z,14.2
2022-10-17T01:10:34.132Z,14.2
2022-10-17T01:13:33.007Z,14.2
2022-10-17T01:16:27.703Z,14.2
2022-10-17T01:22:30.185Z,14.2
2022-10-17T01:25:26.692Z,14.2
2022-10-17T01:28:26.548Z,14.3
2022-10-17T01:31:37.675Z,14.3
2022-10-17T01:34:30.228Z,14.3
2022-10-17T01:37:24.258Z,14.3
2022-10-17T01:40:17.821Z,14.3
2022-10-17T01:43:10.674Z,14.3
2022-10-17T01:46:04.408Z,14.3
2022-10-17T01:48:58.386Z,14.3
2022-10-17T01:51:48.197Z,14.3
2022-10-17T01:54:40.714Z,14.3
2022-10-17T01:57:31.150Z,14.3
2022-10-17T02:00:23.196Z,14.3
2022-10-17T02:03:12.857Z,14.3
2022-10-17T02:06:03.561Z,14.3
2022-10-17T02:08:51.494Z,14.3
2022-10-17T02:11:38.964Z,14.3
2022-10-17T02:14:26.541Z,14.3
2022-10-17T02:17:23.058Z,14.3
2022-10-17T02:20:20.341Z,14.3
2022-10-17T02:23:11.012Z,14.3
2022-10-17T02:26:06.687Z,14.3
2022-10-17T02:29:00.758Z,14.3
2022-10-17T02:31:53.912Z,14.4
2022-10-17T02:34:49.020Z,14.3
2022-10-17T02:37:40.368Z,14.3
2022-10-17T02:40:30.501Z,14.3
2022-10-17T02:43:18.681Z,14.3
2022-10-17T02:46:07.341Z,14.3
2022-10-17T02:48:54.856Z,14.3
2022-10-17T02:51:47.999Z,14.3
2022-10-17T02:54:40.784Z,14.3
2022-10-17T02:57:33.642Z,14.3
2022-10-17T03:00:24.527Z,14.3
2022-10-17T03:03:13.793Z,14.4
2022-10-17T03:06:06.595Z,14.3
2022-10-17T03:08:54.065Z,14.3
2022-10-17T03:11:41.396Z,14.3
2022-10-17T03:14:28.668Z,14.2
2022-10-17T03:17:15.934Z,14.2
2022-10-17T03:20:03.825Z,14.1
2022-10-17T03:22:53.621Z,14.1
2022-10-17T03:25:41.563Z,14
2022-10-17T03:28:29.117Z,14
2022-10-17T03:31:16.558Z,14
2022-10-17T03:34:04.136Z,14
2022-10-17T03:36:51.517Z,13.9
2022-10-17T03:39:38.892Z,13.9
2022-10-17T03:42:26.160Z,13.9
2022-10-17T03:45:13.547Z,13.9
2022-10-17T03:48:01.080Z,13.9
2022-10-17T03:50:49.461Z,13.8
2022-10-17T03:53:36.824Z,13.8
2022-10-17T03:56:24.126Z,13.8
2022-10-17T03:59:12.385Z,13.8
2022-10-17T04:02:01.400Z,13.7
2022-10-17T04:04:49.856Z,13.7
2022-10-17T04:07:37.212Z,13.7
2022-10-17T04:10:25.060Z,13.7
2022-10-17T04:13:12.528Z,13.6
2022-10-17T04:16:00.166Z,13.6
2022-10-17T04:18:50.048Z,13.6
2022-10-17T04:21:39.336Z,13.6
2022-10-17T04:24:26.744Z,13.6
2022-10-17T04:27:14.109Z,13.5
2022-10-17T04:30:01.660Z,13.5
2022-10-17T04:32:51.780Z,13.5
2022-10-17T04:35:39.091Z,13.5
2022-10-17T04:38:28.509Z,13.5
2022-10-17T04:41:16.868Z,13.5
2022-10-17T04:44:04.908Z,13.5
2022-10-17T04:46:52.340Z,13.5
2022-10-17T04:49:42.736Z,13.5
2022-10-17T04:52:30.610Z,13.5
2022-10-17T04:55:22.049Z,13.5
2022-10-17T04:58:09.477Z,13.4
2022-10-17T05:00:57.023Z,13.4
2022-10-17T05:03:44.415Z,13.4
2022-10-17T05:06:32.230Z,13.4
2022-10-17T05:09:19.693Z,13.4
2022-10-17T05:12:09.562Z,13.3
2022-10-17T05:14:57.888Z,13.3
2022-10-17T05:17:45.256Z,13.3
2022-10-17T05:20:32.607Z,13.2
2022-10-17T05:23:20.253Z,13.2
2022-10-17T05:26:07.751Z,13.2
2022-10-17T05:28:55.405Z,13.2
2022-10-17T05:31:45.084Z,13.2
2022-10-17T05:34:32.447Z,13.2
2022-10-17T05:37:19.962Z,13.2
2022-10-17T05:40:07.541Z,13.2
2022-10-17T05:42:55.960Z,13.2
2022-10-17T05:45:43.355Z,13.2
2022-10-17T05:48:30.728Z,13.2
2022-10-17T05:51:18.406Z,13.2
2022-10-17T05:54:05.821Z,13.2
2022-10-17T05:56:53.471Z,13.2
2022-10-17T05:59:41.708Z,13.2
2022-10-17T06:02:29.707Z,13.2
2022-10-17T06:05:17.248Z,13.2
2022-10-17T06:08:05.595Z,13.2
2022-10-17T06:10:52.995Z,13.2
2022-10-17T06:13:40.346Z,13.2
2022-10-17T06:16:27.866Z,13.3
2022-10-17T06:19:15.670Z,13.3
2022-10-17T06:22:03.605Z,13.3
2022-10-17T06:24:52.129Z,13.3
2022-10-17T06:27:39.528Z,13.3
2022-10-17T06:30:27.378Z,13.3
2022-10-17T06:33:14.910Z,13.3
2022-10-17T06:36:02.879Z,13.4
2022-10-17T06:38:53.219Z,13.4
2022-10-17T06:41:40.686Z,13.4
2022-10-17T06:44:29.181Z,13.4
2022-10-17T06:47:19.915Z,13.4
2022-10-17T06:50:07.752Z,13.5
2022-10-17T06:52:55.415Z,13.5
2022-10-17T06:55:42.859Z,13.5
2022-10-17T06:58:30.248Z,13.6
2022-10-17T07:01:20.090Z,13.6
2022-10-17T07:04:07.311Z,13.7
2022-10-17T07:06:54.952Z,13.7
2022-10-17T07:09:42.432Z,13.8
2022-10-17T07:12:29.827Z,13.8
2022-10-17T07:15:18.574Z,13.9
2022-10-17T07:18:06.008Z,14
2022-10-17T07:20:53.428Z,14
2022-10-17T07:23:40.807Z,14.1
2022-10-17T07:26:28.421Z,14.1
2022-10-17T07:29:15.731Z,14.2
2022-10-17T07:32:03.632Z,14.3
2022-10-17T07:34:53.191Z,14.3
2022-10-17T07:37:40.584Z,14.4
2022-10-17T07:40:27.965Z,14.5
2022-10-17T07:43:15.383Z,14.5
2022-10-17T07:46:02.982Z,14.6
2022-10-17T07:48:52.873Z,14.7
2022-10-17T07:51:40.278Z,14.8
2022-10-17T07:54:27.777Z,14.9
2022-10-17T07:57:15.193Z,15
2022-10-17T08:00:03.041Z,15.1
2022-10-17T08:02:54.240Z,15.2
2022-10-17T08:05:41.599Z,15.3
2022-10-17T08:08:29.074Z,15.4
2022-10-17T08:11:16.455Z,15.5
2022-10-17T08:14:04.301Z,15.6
2022-10-17T08:16:52.359Z,15.7
2022-10-17T08:19:40.039Z,15.8
2022-10-17T08:22:27.836Z,15.9
2022-10-17T08:25:15.738Z,15.9
2022-10-17T08:28:03.501Z,16
2022-10-17T08:30:52.330Z,16.1
2022-10-17T08:33:46.918Z,16.1
2022-10-17T08:36:35.504Z,16.2
2022-10-17T08:39:22.974Z,16.2
2022-10-17T08:42:10.533Z,16.2
2022-10-17T08:45:19.563Z,16.3
2022-10-17T08:48:14.728Z,16.5
2022-10-17T08:51:05.399Z,16.6
2022-10-17T08:53:59.223Z,16.7
2022-10-17T08:56:55.693Z,16.9
2022-10-17T08:59:43.100Z,17.1
2022-10-17T09:02:36.782Z,17.2
2022-10-17T09:05:35.164Z,17.4
2022-10-17T09:08:32.199Z,17.6
2022-10-17T09:11:30.583Z,17.8
2022-10-17T09:14:33.323Z,17.9
2022-10-17T09:18:23.984Z,18.1
2022-10-17T09:21:16.472Z,18.2
2022-10-17T09:24:15.699Z,18.4
2022-10-17T09:27:09.863Z,18.6
2022-10-17T09:30:13.086Z,18.8
2022-10-17T09:33:23.371Z,19.1
2022-10-17T09:36:26.603Z,19.3
2022-10-17T09:39:15.940Z,19.5
2022-10-17T09:42:07.735Z,19.7
2022-10-17T09:44:59.792Z,19.8
2022-10-17T09:48:03.553Z,20
2022-10-17T09:51:14.570Z,20.1
2022-10-17T09:54:10.686Z,20.2
2022-10-17T09:57:05.698Z,20.4
2022-10-17T09:59:55.356Z,20.5
2022-10-17T10:02:45.457Z,20.7
2022-10-17T10:05:32.895Z,20.8
2022-10-17T10:08:20.203Z,21
2022-10-17T10:11:13.817Z,21.1
2022-10-17T10:14:03.006Z,21.3
2022-10-17T10:16:58.728Z,21.4
2022-10-17T10:19:48.064Z,21.5
2022-10-17T10:22:36.947Z,21.5
2022-10-17T10:25:24.700Z,21.7
2022-10-17T10:28:12.177Z,21.8
2022-10-17T10:31:02.427Z,22
2022-10-17T10:33:56.876Z,22.2
2022-10-17T10:36:48.194Z,22.4
2022-10-17T10:39:42.915Z,22.5
2022-10-17T10:42:34.681Z,22.5
2022-10-17T10:45:46.571Z,22.6
2022-10-17T10:48:37.013Z,22.6
2022-10-17T10:51:36.039Z,22.7
2022-10-17T10:54:27.873Z,22.8
2022-10-17T10:57:21.916Z,22.9
2022-10-17T11:00:14.491Z,23
2022-10-17T11:03:08.437Z,23.1
2022-10-17T11:06:03.976Z,23.3
2022-10-17T11:08:59.358Z,23.3
2022-10-17T11:11:59.816Z,23.4
2022-10-17T11:14:53.011Z,23.5
2022-10-17T11:17:45.469Z,23.7
2022-10-17T11:20:41.609Z,23.8
2022-10-17T11:23:37.490Z,23.8
2022-10-17T11:26:29.876Z,23.7
2022-10-17T11:29:23.349Z,23.8
2022-10-17T11:32:14.997Z,23.8
2022-10-17T11:35:05.942Z,23.9
2022-10-17T11:38:04.251Z,24
2022-10-17T11:41:00.965Z,24.1
2022-10-17T11:43:51.059Z,24.2
2022-10-17T11:46:42.758Z,24.3
2022-10-17T11:49:38.254Z,24.4
2022-10-17T11:52:51.746Z,24.5
2022-10-17T11:55:51.467Z,24.6
2022-10-17T11:58:42.984Z,24.7
2022-10-17T12:01:40.668Z,24.8
2022-10-17T12:04:33.019Z,24.9
2022-10-17T12:07:31.434Z,24.9
2022-10-17T12:10:28.352Z,25
2022-10-17T12:13:24.952Z,25
2022-10-17T12:16:43.904Z,25
2022-10-17T12:19:31.494Z,25
2022-10-17T12:22:20.674Z,25
2022-10-17T12:25:10.776Z,24.9
2022-10-17T12:28:05.203Z,24.9
2022-10-17T12:31:04.759Z,24.9
2022-10-17T12:33:57.611Z,24.9
2022-10-17T12:36:47.396Z,24.8
2022-10-17T12:39:34.862Z,24.8
2022-10-17T12:42:27.923Z,24.8
2022-10-17T12:45:19.016Z,24.8
2022-10-17T12:48:39.057Z,24.9
2022-10-17T12:52:30.153Z,25
2022-10-17T12:55:51.754Z,25
2022-10-17T12:58:45.142Z,25.1
2022-10-17T13:01:35.853Z,25.1
2022-10-17T13:04:28.695Z,25
2022-10-17T13:07:16.960Z,24.9
2022-10-17T13:10:07.765Z,24.8
2022-10-17T13:13:06.063Z,24.6
2022-10-17T13:16:00.820Z,24.4
2022-10-17T13:18:49.009Z,24.2
2022-10-17T13:21:38.472Z,24.3
2022-10-17T13:24:35.434Z,24.5
2022-10-17T13:27:25.036Z,24.7
2022-10-17T13:30:15.115Z,25
2022-10-17T13:33:13.005Z,25.2
2022-10-17T13:36:22.640Z,25.4
2022-10-17T13:39:12.433Z,25.5
2022-10-17T13:42:05.775Z,25.6
2022-10-17T13:45:09.804Z,25.7
2022-10-17T13:48:10.762Z,25.7
2022-10-17T13:51:10.278Z,25.7
2022-10-17T13:53:58.760Z,25.6
2022-10-17T13:56:46.345Z,25.5
2022-10-17T13:59:41.676Z,25.3
2022-10-17T14:02:32.481Z,25.2
2022-10-17T14:05:20.997Z,25.1
2022-10-17T14:08:12.334Z,25
2022-10-17T14:11:01.627Z,24.8
2022-10-17T14:13:59.731Z,24.6
2022-10-17T14:16:51.155Z,24.5
2022-10-17T14:19:39.226Z,24.3
2022-10-17T14:22:27.081Z,24.2
2022-10-17T14:25:18.988Z,24.1
2022-10-17T14:28:16.451Z,23.9
2022-10-17T14:31:07.919Z,23.8
2022-10-17T14:34:10.211Z,23.7
2022-10-17T14:37:09.023Z,23.6
2022-10-17T14:40:03.983Z,23.5
2022-10-17T14:43:00.376Z,23.3
2022-10-17T14:45:51.170Z,23.2
2022-10-17T14:48:42.180Z,23.1
2022-10-17T14:51:40.091Z,23.1
2022-10-17T14:55:12.182Z,22.9
2022-10-17T14:58:08.395Z,22.8
2022-10-17T15:01:09.216Z,22.7
2022-10-17T15:03:56.551Z,22.7
2022-10-17T15:06:43.909Z,22.6
2022-10-17T15:09:39.513Z,22.5
2022-10-17T15:12:27.957Z,22.4
2022-10-17T15:15:16.217Z,22.3
2022-10-17T15:18:03.843Z,22.2
2022-10-17T15:21:04.611Z,22.1
2022-10-17T15:23:56.713Z,22
2022-10-17T15:26:46.382Z,22
2022-10-17T15:29:34.485Z,21.9
2022-10-17T15:32:25.460Z,21.8
2022-10-17T15:35:12.931Z,21.7
2022-10-17T15:38:00.723Z,21.6
2022-10-17T15:40:51.720Z,21.5
2022-10-17T15:43:39.113Z,21.4
2022-10-17T15:46:26.673Z,21.3
2022-10-17T15:49:17.757Z,21.3
2022-10-17T15:52:05.225Z,21.2
2022-10-17T15:54:54.197Z,21.1
2022-10-17T15:57:42.029Z,21
2022-10-17T16:00:32.321Z,21
2022-10-17T16:03:19.783Z,20.9
2022-10-17T16:06:10.732Z,20.8
2022-10-17T16:09:01.366Z,20.7
2022-10-17T16:11:49.468Z,20.7
2022-10-17T16:14:36.889Z,20.6
2022-10-17T16:17:24.583Z,20.5
2022-10-17T16:20:11.900Z,20.5
2022-10-17T16:22:59.842Z,20.4
2022-10-17T16:25:50.312Z,20.4
2022-10-17T16:28:39.534Z,20.3
2022-10-17T16:31:30.200Z,20.2
2022-10-17T16:34:20.704Z,20.1
2022-10-17T16:37:08.292Z,20.1
2022-10-17T16:39:55.802Z,20.1
2022-10-17T16:42:43.368Z,20
2022-10-17T16:45:30.955Z,20
2022-10-17T16:48:18.581Z,20
2022-10-17T16:51:05.959Z,19.9
2022-10-17T16:53:53.536Z,19.9
2022-10-17T16:56:41.743Z,19.8
2022-10-17T16:59:29.208Z,19.8
2022-10-17T17:02:19.000Z,19.7
2022-10-17T17:05:08.983Z,19.7
2022-10-17T17:07:56.912Z,19.7
2022-10-17T17:10:45.522Z,19.6
2022-10-17T17:13:34.692Z,19.6
2022-10-17T17:16:23.112Z,19.5
2022-10-17T17:19:11.907Z,19.5
2022-10-17T17:22:01.769Z,19.5
2022-10-17T17:27:37.237Z,19.4
2022-10-17T17:30:24.600Z,19.3
2022-10-17T17:33:12.031Z,19.3
2022-10-17T17:35:59.700Z,19.3
2022-10-17T17:38:47.729Z,19.2
2022-10-17T17:41:36.686Z,19.2
2022-10-17T17:44:25.706Z,19.1
2022-10-17T17:47:13.088Z,19.1
2022-10-17T17:50:00.443Z,19
2022-10-17T17:52:48.929Z,19
2022-10-17T17:55:36.319Z,18.9
2022-10-17T17:58:23.716Z,18.9
2022-10-17T18:01:13.194Z,18.8
2022-10-17T18:04:06.990Z,18.8
2022-10-17T18:06:54.972Z,18.8
2022-10-17T18:09:42.339Z,18.7
2022-10-17T18:12:30.050Z,18.7
2022-10-17T18:15:19.395Z,18.6
2022-10-17T18:18:06.828Z,18.6
2022-10-17T18:20:54.868Z,18.6
2022-10-17T18:23:45.911Z,18.5
2022-10-17T18:26:34.981Z,18.5
2022-10-17T18:29:22.498Z,18.5
2022-10-17T18:32:09.858Z,18.5
2022-10-17T18:34:57.904Z,18.4
2022-10-17T18:37:45.285Z,18.4
2022-10-17T18:40:34.552Z,18.4
2022-10-17T18:43:22.137Z,18.4
2022-10-17T18:46:12.401Z,18.4
2022-10-17T18:49:07.179Z,18.3
2022-10-17T18:51:55.886Z,18.3
2022-10-17T18:54:44.448Z,18.3
2022-10-17T18:57:32.293Z,18.2
2022-10-17T19:00:19.947Z,18.2
2022-10-17T19:03:07.503Z,18.1
2022-10-17T19:05:56.750Z,18.1
2022-10-17T19:08:48.027Z,18.1
2022-10-17T19:11:35.528Z,18.1
2022-10-17T19:14:24.033Z,18
2022-10-17T19:17:13.188Z,18
2022-10-17T19:20:00.651Z,17.9
2022-10-17T19:22:49.224Z,17.9
2022-10-17T19:25:36.673Z,17.9
2022-10-17T19:28:24.414Z,17.8
2022-10-17T19:31:16.846Z,17.8
2022-10-17T19:34:06.830Z,17.8
2022-10-17T19:36:55.284Z,17.8
2022-10-17T19:39:42.637Z,17.7
2022-10-17T19:42:30.658Z,17.7
2022-10-17T19:45:19.700Z,17.7
2022-10-17T19:48:07.223Z,17.7
2022-10-17T19:50:54.704Z,17.7
2022-10-17T19:53:42.103Z,17.6
2022-10-17T19:56:30.316Z,17.6
2022-10-17T19:59:22.346Z,17.5
2022-10-17T20:02:11.144Z,17.5
2022-10-17T20:05:13.813Z,17.5
2022-10-17T20:08:05.945Z,17.5
2022-10-17T20:10:53.863Z,17.4
2022-10-17T20:13:41.251Z,17.4
2022-10-17T20:16:29.666Z,17.4
2022-10-17T20:19:19.816Z,17.4
2022-10-17T20:22:07.480Z,17.4
2022-10-17T20:24:54.839Z,17.3
2022-10-17T20:27:42.244Z,17.3
2022-10-17T20:30:30.004Z,17.3
2022-10-17T20:33:17.378Z,17.3
2022-10-17T20:36:05.220Z,17.2
2022-10-17T20:38:55.261Z,17.2
2022-10-17T20:41:43.928Z,17.2
2022-10-17T20:44:32.503Z,17.1
2022-10-17T20:47:33.170Z,17.1
2022-10-17T20:50:35.138Z,17
2022-10-17T20:53:35.981Z,17
2022-10-17T20:56:24.266Z,17
2022-10-17T20:59:13.211Z,16.9
2022-10-17T21:02:02.340Z,16.9
2022-10-17T21:04:51.705Z,16.9
2022-10-17T21:07:39.156Z,16.8
2022-10-17T21:10:34.965Z,16.8
2022-10-17T21:13:22.982Z,16.8
2022-10-17T21:16:10.429Z,16.7
2022-10-17T21:18:59.972Z,16.7
2022-10-17T21:21:48.941Z,16.6
2022-10-17T21:24:36.388Z,16.6
2022-10-17T21:27:23.856Z,16.6
2022-10-17T21:30:11.588Z,16.5
2022-10-17T21:32:59.205Z,16.5
2022-10-17T21:35:46.948Z,16.4
2022-10-17T21:38:39.164Z,16.4
2022-10-17T21:41:26.795Z,16.4
2022-10-17T21:44:15.839Z,16.4
2022-10-17T21:47:05.637Z,16.4
2022-10-17T21:49:53.142Z,16.4
2022-10-17T21:52:41.379Z,16.3
2022-10-17T21:55:28.623Z,16.3
2022-10-17T21:58:16.111Z,16.3
2022-10-17T22:01:04.959Z,16.3
2022-10-17T22:03:56.006Z,16.3
2022-10-17T22:06:47.794Z,16.3
2022-10-17T22:09:35.843Z,16.2
2022-10-17T22:12:23.202Z,16.2
2022-10-17T22:15:11.040Z,16.2
2022-10-17T22:17:58.482Z,16.2
2022-10-17T22:20:45.975Z,16.2
2022-10-17T22:23:33.405Z,16.2
2022-10-17T22:26:20.982Z,16.2
2022-10-17T22:29:09.917Z,16.1
2022-10-17T22:31:58.061Z,16.1
2022-10-17T22:34:46.447Z,16.1
2022-10-17T22:37:34.469Z,16.1
2022-10-17T22:40:21.848Z,16.1
2022-10-17T22:43:09.202Z,16.1
2022-10-17T22:45:56.833Z,16
2022-10-17T22:48:46.214Z,16
2022-10-17T22:51:33.562Z,16
2022-10-17T22:54:20.929Z,15.9
2022-10-17T22:57:08.301Z,15.9
2022-10-17T22:59:55.677Z,15.9
2022-10-17T23:02:43.053Z,15.8
2022-10-17T23:05:30.392Z,15.8
2022-10-17T23:08:17.726Z,15.8
2022-10-17T23:11:05.773Z,15.8
2022-10-17T23:13:53.658Z,15.8
2022-10-17T23:16:41.415Z,15.8
2022-10-17T23:19:28.805Z,15.8
2022-10-17T23:22:17.393Z,15.8
2022-10-17T23:25:04.974Z,15.8
2022-10-17T23:27:53.201Z,15.7
2022-10-17T23:30:40.808Z,15.7
2022-10-17T23:33:28.370Z,15.7
2022-10-17T23:36:15.678Z,15.6
2022-10-17T23:39:05.188Z,15.6
2022-10-17T23:41:52.854Z,15.5
2022-10-17T23:44:40.615Z,15.5
2022-10-17T23:47:28.131Z,15.4
2022-10-17T23:50:15.717Z,15.4
2022-10-17T23:53:03.684Z,15.3
2022-10-17T23:55:52.015Z,15.3
2022-10-17T23:58:39.308Z,15.3
